createdAt,value
2023-02-22T00:00:52.853Z,16.40
2023-02-22T00:03:56.880Z,13.60
2023-02-22T00:07:02.064Z,11.10
2023-02-22T00:10:09.152Z,11.80
2023-02-22T00:13:14.635Z,9.50
2023-02-22T00:16:21.988Z,14.50
2023-02-22T00:19:28.086Z,12.00
2023-02-22T00:22:32.325Z,14.60
2023-02-22T00:25:36.313Z,16.90
2023-02-22T00:28:40.276Z,13.40
2023-02-22T00:31:44.253Z,14.10
2023-02-22T00:34:52.590Z,15.60
2023-02-22T00:37:59.985Z,11.80
2023-02-22T00:41:04.116Z,12.50
2023-02-22T00:44:08.132Z,15.70
2023-02-22T00:47:12.560Z,11.50
2023-02-22T00:50:18.419Z,11.10
2023-02-22T00:53:25.227Z,13.40
2023-02-22T00:56:29.233Z,15.60
2023-02-22T00:59:33.538Z,13.90
2023-02-22T01:02:42.672Z,11.00
2023-02-22T01:05:47.614Z,17.10
2023-02-22T01:08:51.723Z,14.50
2023-02-22T01:11:56.893Z,20.00
2023-02-22T01:15:01.901Z,17.90
2023-02-22T01:18:07.227Z,16.00
2023-02-22T01:21:11.741Z,13.90
2023-02-22T01:24:17.485Z,16.70
2023-02-22T01:27:21.453Z,22.30
2023-02-22T01:33:34.062Z,15.70
2023-02-22T01:36:38.619Z,12.30
2023-02-22T01:39:42.549Z,18.50
2023-02-22T01:42:51.355Z,13.30
2023-02-22T01:45:58.485Z,14.50
2023-02-22T01:49:06.564Z,16.80
2023-02-22T01:52:15.479Z,9.80
2023-02-22T01:55:19.783Z,13.10
2023-02-22T01:58:26.193Z,12.60
2023-02-22T02:01:30.822Z,13.20
2023-02-22T02:04:36.455Z,14.90
2023-02-22T02:07:41.265Z,14.40
2023-02-22T02:10:45.522Z,13.60
2023-02-22T02:13:51.903Z,12.40
2023-02-22T02:16:56.762Z,14.50
2023-02-22T02:20:28.184Z,13.50
2023-02-22T02:24:04.963Z,16.60
2023-02-22T02:27:36.595Z,18.70
2023-02-22T02:31:03.900Z,10.70
2023-02-22T02:34:27.044Z,9.00
2023-02-22T02:37:41.009Z,12.10
2023-02-22T02:40:55.885Z,11.50
2023-02-22T02:44:05.292Z,10.50
2023-02-22T02:47:15.950Z,6.40
2023-02-22T02:50:24.833Z,10.20
2023-02-22T02:53:36.492Z,15.10
2023-02-22T02:56:41.413Z,16.70
2023-02-22T02:59:47.077Z,10.70
2023-02-22T03:03:11.053Z,14.10
2023-02-22T03:06:27.125Z,9.90
2023-02-22T03:09:38.532Z,13.70
2023-02-22T03:12:54.733Z,9.20
2023-02-22T03:16:19.436Z,10.00
2023-02-22T03:19:38.448Z,9.00
2023-02-22T03:23:04.512Z,9.60
2023-02-22T03:26:14.539Z,13.20
2023-02-22T03:29:23.879Z,9.80
2023-02-22T03:32:33.488Z,11.20
2023-02-22T03:35:44.794Z,10.50
2023-02-22T03:38:50.880Z,15.80
2023-02-22T03:41:56.536Z,8.60
2023-02-22T03:45:05.176Z,10.30
2023-02-22T03:48:26.448Z,12.70
2023-02-22T03:51:30.557Z,11.60
2023-02-22T03:54:37.046Z,9.40
2023-02-22T03:57:46.674Z,14.00
2023-02-22T04:00:53.366Z,10.80
2023-02-22T04:03:57.579Z,7.10
2023-02-22T04:11:01.818Z,9.50
2023-02-22T04:14:08.252Z,12.60
2023-02-22T04:20:20.097Z,7.60
2023-02-22T04:23:29.817Z,7.50
2023-02-22T04:26:34.868Z,12.40
2023-02-22T04:29:40.318Z,9.00
2023-02-22T04:32:44.885Z,12.10
2023-02-22T04:38:54.086Z,9.00
2023-02-22T04:45:02.528Z,10.10
2023-02-22T04:48:06.955Z,14.20
2023-02-22T04:51:11.374Z,10.20
2023-02-22T04:54:20.294Z,14.30
2023-02-22T05:00:28.951Z,9.20
2023-02-22T05:03:38.542Z,10.20
2023-02-22T05:06:42.516Z,10.70
2023-02-22T05:09:46.529Z,10.80
2023-02-22T05:12:51.807Z,9.80
2023-02-22T05:15:55.912Z,8.00
2023-02-22T05:19:00.168Z,6.30
2023-02-22T05:22:05.866Z,7.70
2023-02-22T05:25:11.408Z,5.80
2023-02-22T05:28:16.866Z,6.60
2023-02-22T05:31:20.911Z,6.50
2023-02-22T05:34:24.999Z,6.30
2023-02-22T05:37:28.907Z,6.20
2023-02-22T05:40:33.526Z,8.50
2023-02-22T05:49:45.797Z,7.70
2023-02-22T05:52:49.814Z,4.50
2023-02-22T05:55:53.741Z,5.00
2023-02-22T05:58:58.583Z,4.00
2023-02-22T06:02:02.696Z,5.00
2023-02-22T06:05:07.687Z,4.10
2023-02-22T06:08:11.954Z,4.70
2023-02-22T06:11:16.386Z,4.80
2023-02-22T06:14:20.684Z,9.60
2023-02-22T06:17:24.706Z,5.90
2023-02-22T06:20:30.896Z,3.50
2023-02-22T06:23:35.138Z,6.40
2023-02-22T06:26:39.076Z,6.40
2023-02-22T06:29:47.164Z,5.30
2023-02-22T06:32:51.128Z,6.40
2023-02-22T06:35:55.165Z,5.90
2023-02-22T06:38:59.256Z,6.10
2023-02-22T06:42:03.513Z,5.00
2023-02-22T06:45:08.961Z,3.80
2023-02-22T06:48:13.261Z,5.10
2023-02-22T06:51:17.438Z,5.10
2023-02-22T06:54:22.415Z,4.20
2023-02-22T07:00:32.252Z,4.90
2023-02-22T07:03:36.440Z,4.70
2023-02-22T07:06:45.934Z,7.00
2023-02-22T07:09:49.864Z,7.90
2023-02-22T07:12:54.616Z,3.60
2023-02-22T07:19:02.731Z,4.90
2023-02-22T07:22:06.672Z,4.60
2023-02-22T07:25:11.475Z,4.90
2023-02-22T07:31:19.826Z,5.20
2023-02-22T07:34:23.837Z,4.70
2023-02-22T07:37:27.943Z,6.20
2023-02-22T07:40:32.273Z,4.60
2023-02-22T07:43:37.216Z,5.50
2023-02-22T07:46:41.335Z,8.00
2023-02-22T07:49:45.348Z,5.40
2023-02-22T07:52:52.334Z,4.80
2023-02-22T07:56:01.572Z,3.90
2023-02-22T07:59:05.572Z,4.80
2023-02-22T08:02:16.746Z,3.40
2023-02-22T08:05:23.345Z,5.10
2023-02-22T08:08:27.466Z,6.20
2023-02-22T08:11:31.496Z,5.40
2023-02-22T08:14:35.502Z,7.00
2023-02-22T08:17:39.617Z,4.30
2023-02-22T08:20:45.888Z,4.30
2023-02-22T08:23:54.563Z,4.80
2023-02-22T08:26:58.870Z,3.50
2023-02-22T08:30:04.151Z,3.70
2023-02-22T08:33:09.335Z,3.10
2023-02-22T08:36:13.446Z,4.90
2023-02-22T08:39:17.457Z,4.60
2023-02-22T08:42:21.776Z,3.20
2023-02-22T08:45:25.995Z,3.70
2023-02-22T08:48:29.908Z,3.70
2023-02-22T08:51:37.764Z,4.90
2023-02-22T08:54:41.726Z,3.40
2023-02-22T08:57:45.687Z,3.60
2023-02-22T09:00:49.759Z,3.90
2023-02-22T09:03:53.742Z,4.10
2023-02-22T09:06:57.718Z,3.10
2023-02-22T09:10:01.682Z,4.10
2023-02-22T09:13:06.359Z,5.50
2023-02-22T09:19:14.865Z,5.10
2023-02-22T09:22:19.094Z,5.90
2023-02-22T09:25:23.589Z,5.60
2023-02-22T09:28:29.241Z,3.80
2023-02-22T09:31:36.643Z,7.60
2023-02-22T09:34:46.040Z,7.10
2023-02-22T09:37:49.998Z,6.60
2023-02-22T09:41:03.131Z,3.70
2023-02-22T09:44:36.576Z,4.80
2023-02-22T09:47:47.693Z,5.00
2023-02-22T09:50:59.087Z,6.20
2023-02-22T09:54:14.645Z,3.70
2023-02-22T09:57:27.606Z,5.40
2023-02-22T10:00:36.607Z,4.80
2023-02-22T10:03:53.065Z,3.00
2023-02-22T10:10:20.852Z,5.70
2023-02-22T10:13:57.052Z,3.50
2023-02-22T10:17:18.692Z,4.60
2023-02-22T10:20:31.708Z,3.60
2023-02-22T10:23:41.550Z,4.70
2023-02-22T10:26:47.138Z,5.50
2023-02-22T10:30:00.755Z,5.50
2023-02-22T10:33:11.766Z,5.50
2023-02-22T10:36:21.032Z,5.20
2023-02-22T10:39:34.713Z,4.50
2023-02-22T10:42:39.056Z,4.10
2023-02-22T10:45:43.060Z,5.00
2023-02-22T10:48:51.688Z,7.40
2023-02-22T10:52:04.298Z,4.60
2023-02-22T10:55:15.537Z,4.00
2023-02-22T10:58:19.950Z,4.10
2023-02-22T11:01:44.220Z,5.80
2023-02-22T11:04:56.403Z,5.60
2023-02-22T11:08:17.323Z,9.90
2023-02-22T11:11:25.535Z,4.80
2023-02-22T11:14:31.064Z,7.80
2023-02-22T11:17:35.209Z,6.20
2023-02-22T11:20:39.755Z,8.60
2023-02-22T11:23:45.079Z,7.00
2023-02-22T11:26:53.421Z,7.60
2023-02-22T11:30:12.491Z,6.60
2023-02-22T11:33:23.856Z,8.90
2023-02-22T11:36:37.525Z,9.70
2023-02-22T11:39:44.292Z,6.50
2023-02-22T11:43:18.804Z,7.50
2023-02-22T11:46:26.557Z,8.20
2023-02-22T11:49:38.418Z,7.80
2023-02-22T11:52:49.938Z,7.30
2023-02-22T11:56:28.398Z,6.00
2023-02-22T11:59:47.294Z,8.40
2023-02-22T12:03:06.352Z,8.40
2023-02-22T12:06:16.600Z,5.60
2023-02-22T12:09:26.793Z,4.60
2023-02-22T12:12:49.199Z,5.30
2023-02-22T12:16:15.492Z,5.80
2023-02-22T12:19:43.329Z,5.90
2023-02-22T12:23:16.890Z,5.80
2023-02-22T12:26:26.785Z,7.00
2023-02-22T12:29:47.319Z,8.50
2023-02-22T12:32:54.812Z,6.70
2023-02-22T12:36:01.241Z,6.00
2023-02-22T12:39:23.605Z,14.20
2023-02-22T12:45:51.211Z,7.30
2023-02-22T12:49:14.790Z,7.40
2023-02-22T12:52:34.191Z,8.00
2023-02-22T12:55:47.484Z,8.10
2023-02-22T12:59:04.096Z,8.60
2023-02-22T13:02:14.071Z,8.70
2023-02-22T13:05:20.718Z,8.40
2023-02-22T13:08:29.943Z,8.30
2023-02-22T13:11:52.802Z,18.30
2023-02-22T13:15:15.214Z,8.50
2023-02-22T13:18:40.557Z,9.00
2023-02-22T13:22:03.970Z,8.20
2023-02-22T13:25:21.905Z,7.60
2023-02-22T13:28:47.945Z,8.00
2023-02-22T13:32:11.060Z,8.10
2023-02-22T13:35:31.921Z,7.60
2023-02-22T13:38:54.442Z,6.40
2023-02-22T13:42:40.531Z,7.40
2023-02-22T13:46:18.067Z,9.20
2023-02-22T13:49:41.748Z,9.90
2023-02-22T13:52:47.977Z,6.90
2023-02-22T13:55:57.064Z,10.40
2023-02-22T13:59:03.643Z,7.50
2023-02-22T14:02:53.441Z,7.00
2023-02-22T14:06:01.129Z,7.80
2023-02-22T14:09:09.868Z,6.80
2023-02-22T14:12:29.091Z,6.80
2023-02-22T14:15:33.362Z,6.00
2023-02-22T14:18:49.450Z,5.60
2023-02-22T14:22:02.244Z,5.20
2023-02-22T14:25:06.650Z,8.20
2023-02-22T14:28:35.522Z,7.80
2023-02-22T14:31:51.757Z,7.10
2023-02-22T14:35:00.742Z,6.00
2023-02-22T14:38:14.357Z,8.10
2023-02-22T14:41:18.938Z,5.00
2023-02-22T14:44:32.688Z,7.30
2023-02-22T14:48:01.350Z,7.00
2023-02-22T14:51:31.026Z,7.50
2023-02-22T14:54:50.115Z,7.50
2023-02-22T14:58:12.096Z,6.30
2023-02-22T15:01:21.988Z,8.90
2023-02-22T15:04:31.197Z,6.60
2023-02-22T15:07:35.884Z,7.90
2023-02-22T15:10:43.909Z,8.50
2023-02-22T15:13:53.887Z,6.40
2023-02-22T15:17:03.178Z,8.20
2023-02-22T15:20:10.807Z,10.50
2023-02-22T15:23:16.865Z,9.40
2023-02-22T15:26:37.453Z,8.80
2023-02-22T15:29:47.064Z,8.80
2023-02-22T15:33:03.791Z,7.60
2023-02-22T15:36:31.225Z,9.90
2023-02-22T15:39:43.786Z,6.80
2023-02-22T15:42:53.138Z,8.90
2023-02-22T15:45:58.813Z,6.90
2023-02-22T15:49:29.423Z,8.20
2023-02-22T15:52:33.823Z,7.00
2023-02-22T15:55:47.342Z,6.40
2023-02-22T15:58:58.367Z,13.90
2023-02-22T16:02:02.381Z,9.60
2023-02-22T16:05:13.365Z,7.30
2023-02-22T16:08:21.228Z,9.10
2023-02-22T16:11:39.913Z,8.50
2023-02-22T16:14:45.089Z,7.10
2023-02-22T16:18:01.678Z,7.80
2023-02-22T16:21:15.600Z,7.70
2023-02-22T16:24:28.248Z,6.50
2023-02-22T16:27:47.386Z,8.70
2023-02-22T16:30:57.990Z,9.90
2023-02-22T16:34:07.603Z,7.40
2023-02-22T16:37:23.212Z,9.40
2023-02-22T16:40:34.457Z,7.70
2023-02-22T16:43:38.558Z,8.30
2023-02-22T16:46:43.209Z,9.90
2023-02-22T16:49:52.862Z,7.70
2023-02-22T16:52:58.665Z,12.20
2023-02-22T16:56:05.521Z,9.40
2023-02-22T16:59:14.805Z,9.30
2023-02-22T17:02:20.113Z,7.70
2023-02-22T17:05:24.529Z,12.60
2023-02-22T17:08:28.451Z,7.90
2023-02-22T17:11:33.565Z,12.30
2023-02-22T17:14:37.885Z,16.10
2023-02-22T17:17:41.840Z,13.20
2023-02-22T17:20:45.949Z,17.40
2023-02-22T17:23:49.981Z,7.70
2023-02-22T17:26:53.878Z,10.10
2023-02-22T17:29:57.896Z,14.80
2023-02-22T17:33:04.686Z,10.70
2023-02-22T17:36:08.701Z,11.40
2023-02-22T17:39:13.524Z,14.50
2023-02-22T17:42:17.472Z,12.70
2023-02-22T17:45:23.498Z,15.70
2023-02-22T17:48:27.453Z,15.40
2023-02-22T17:51:31.461Z,19.10
2023-02-22T17:54:35.422Z,14.40
2023-02-22T17:57:44.085Z,12.90
2023-02-22T18:00:50.088Z,15.20
2023-02-22T18:03:56.345Z,11.00
2023-02-22T18:07:00.606Z,12.30
2023-02-22T18:10:11.929Z,7.80
2023-02-22T18:13:18.841Z,12.10
2023-02-22T18:16:27.777Z,10.00
2023-02-22T18:19:32.161Z,9.00
2023-02-22T18:22:36.064Z,9.60
2023-02-22T18:25:43.727Z,9.50
2023-02-22T18:28:48.790Z,11.70
2023-02-22T18:31:53.613Z,8.50
2023-02-22T18:35:01.466Z,10.50
2023-02-22T18:38:05.954Z,9.90
2023-02-22T18:41:15.839Z,10.40
2023-02-22T18:44:20.780Z,8.30
2023-02-22T18:47:24.787Z,10.30
2023-02-22T18:50:29.143Z,10.80
2023-02-22T18:53:33.640Z,13.40
2023-02-22T18:56:39.703Z,9.40
2023-02-22T18:59:44.860Z,11.10
2023-02-22T19:02:48.809Z,13.80
2023-02-22T19:05:54.100Z,10.90
2023-02-22T19:09:01.417Z,13.40
2023-02-22T19:12:06.207Z,14.00
2023-02-22T19:18:16.700Z,11.40
2023-02-22T19:21:21.117Z,14.80
2023-02-22T19:24:25.676Z,21.30
2023-02-22T19:27:30.605Z,15.40
2023-02-22T19:30:34.691Z,20.60
2023-02-22T19:33:38.706Z,14.50
2023-02-22T19:36:48.096Z,15.90
2023-02-22T19:39:52.035Z,15.50
2023-02-22T19:42:57.566Z,16.10
2023-02-22T19:46:04.373Z,19.40
2023-02-22T19:49:08.549Z,13.70
2023-02-22T19:52:12.566Z,15.20
2023-02-22T19:55:16.558Z,12.00
2023-02-22T19:58:20.497Z,14.60
2023-02-22T20:01:27.012Z,18.10
2023-02-22T20:04:31.034Z,16.30
2023-02-22T20:07:35.103Z,19.60
2023-02-22T20:10:39.426Z,13.40
2023-02-22T20:13:43.732Z,21.60
2023-02-22T20:16:47.818Z,15.20
2023-02-22T20:19:53.502Z,12.30
2023-02-22T20:22:57.410Z,15.70
2023-02-22T20:26:01.600Z,15.50
2023-02-22T20:29:07.856Z,14.50
2023-02-22T20:32:14.900Z,14.20
2023-02-22T20:35:19.232Z,19.60
2023-02-22T20:38:23.334Z,17.40
2023-02-22T20:41:30.242Z,12.80
2023-02-22T20:44:34.739Z,20.60
2023-02-22T20:47:38.913Z,16.10
2023-02-22T20:50:42.899Z,17.30
2023-02-22T20:53:47.628Z,14.50
2023-02-22T20:59:57.238Z,10.80
2023-02-22T21:03:01.177Z,8.20
2023-02-22T21:06:06.621Z,10.70
2023-02-22T21:09:14.280Z,12.70
2023-02-22T21:12:18.276Z,15.80
2023-02-22T21:15:25.986Z,9.70
2023-02-22T21:18:30.104Z,16.90
2023-02-22T21:21:35.480Z,10.70
2023-02-22T21:24:39.495Z,15.60
2023-02-22T21:27:43.582Z,11.80
2023-02-22T21:30:47.719Z,12.00
2023-02-22T21:33:57.513Z,13.50
2023-02-22T21:37:01.663Z,12.00
2023-02-22T21:40:12.239Z,8.90
2023-02-22T21:43:16.771Z,8.90
2023-02-22T21:46:20.819Z,7.90
2023-02-22T21:49:25.261Z,8.50
2023-02-22T21:52:29.195Z,4.90
2023-02-22T21:55:34.049Z,8.50
2023-02-22T21:58:38.076Z,9.40
2023-02-22T22:01:50.047Z,7.00
2023-02-22T22:04:54.105Z,9.80
2023-02-22T22:07:58.468Z,6.00
2023-02-22T22:11:03.248Z,6.60
2023-02-22T22:14:08.431Z,7.60
2023-02-22T22:17:12.352Z,8.30
2023-02-22T22:20:16.988Z,7.20
2023-02-22T22:26:26.432Z,6.20
2023-02-22T22:29:31.110Z,4.50
2023-02-22T22:32:35.091Z,8.00
2023-02-22T22:35:39.473Z,6.20
2023-02-22T22:38:47.085Z,6.90
2023-02-22T22:41:52.112Z,7.00
2023-02-22T22:44:56.118Z,7.70
2023-02-22T22:48:00.045Z,6.30
2023-02-22T22:51:10.085Z,7.20
2023-02-22T22:54:14.530Z,5.80
2023-02-22T22:57:18.637Z,6.40
2023-02-22T23:00:37.633Z,7.20
2023-02-22T23:03:43.890Z,8.10
2023-02-22T23:06:50.764Z,5.20
2023-02-22T23:09:54.696Z,7.70
2023-02-22T23:12:58.657Z,7.70
2023-02-22T23:16:02.734Z,6.60
2023-02-22T23:19:08.041Z,7.10
2023-02-22T23:22:15.649Z,7.20
2023-02-22T23:25:20.461Z,7.10
2023-02-22T23:28:24.496Z,7.10
2023-02-22T23:31:29.107Z,5.30
2023-02-22T23:34:36.022Z,5.30
2023-02-22T23:37:39.955Z,6.60
2023-02-22T23:40:44.862Z,5.30
2023-02-22T23:43:49.286Z,7.60
2023-02-22T23:46:56.975Z,5.60
2023-02-22T23:50:01.001Z,7.90
2023-02-22T23:53:06.081Z,10.40
2023-02-22T23:56:13.227Z,7.50
2023-02-22T23:59:17.149Z,7.40
